sensor_id;sensor_type;location;lat;lon;timestamp;pressure;altitude;pressure_sealevel;temperature;humidity
74431;BME280;62863;52.062;23.764;2023-11-21T06:41:37;1020.9;;;-1;74.5
74431;BME280;62863;52.062;23.764;2023-11-21T06:46:27;1020.9;;;-1;74.6
74431;BME280;62863;52.062;23.764;2023-11-21T06:51:49;1020.9;;;-0.9;74.6
74431;BME280;62863;52.062;23.764;2023-11-21T06:56:47;1020.9;;;-0.9;74.4
74431;BME280;62863;52.062;23.764;2023-11-21T07:01:33;1020.9;;;-0.9;74.3
74431;BME280;62863;52.062;23.764;2023-11-21T07:06:31;1020.8;;;-0.8;74.3
74431;BME280;62863;52.062;23.764;2023-11-21T07:11:23;1020.7;;;-0.7;73.8
74431;BME280;62863;52.062;23.764;2023-11-21T07:16:13;1020.8;;;-0.6;73.3
74431;BME280;62863;52.062;23.764;2023-11-21T07:21:49;1020.9;;;-0.6;73.2
74431;BME280;62863;52.062;23.764;2023-11-21T07:26:15;1021;;;-0.5;73
74431;BME280;62863;52.062;23.764;2023-11-21T07:31:49;1021.2;;;-0.5;72.8
74431;BME280;62863;52.062;23.764;2023-11-21T07:36:29;1021.2;;;-0.6;73
74431;BME280;62863;52.062;23.764;2023-11-21T07:41:49;1021.2;;;-0.6;73.1
74431;BME280;62863;52.062;23.764;2023-11-21T07:46:37;1021.1;;;-0.5;72.9
74431;BME280;62863;52.062;23.764;2023-11-21T07:51:49;1021.1;;;-0.3;72.5
74431;BME280;62863;52.062;23.764;2023-11-21T07:56:47;1021;;;-0.2;72.3
74431;BME280;62863;52.062;23.764;2023-11-21T08:01:23;1021;;;-0.1;71.8
74431;BME280;62863;52.062;23.764;2023-11-21T08:06:21;1021;;;-0.1;71.6
74431;BME280;62863;52.062;23.764;2023-11-21T08:11:27;1021.1;;;0;71.5
74431;BME280;62863;52.062;23.764;2023-11-21T08:16:31;1021.1;;;0.2;71.2
74431;BME280;62863;52.062;23.764;2023-11-21T08:21:39;1021.2;;;0.2;70.9
74431;BME280;62863;52.062;23.764;2023-11-21T08:26:29;1021.2;;;0.2;70.9
74431;BME280;62863;52.062;23.764;2023-11-21T08:31:49;1021.3;;;0.2;70.9
74431;BME280;62863;52.062;23.764;2023-11-21T08:36:40;1021.3;;;0.4;70.5
74431;BME280;62863;52.062;23.764;2023-11-21T08:41:47;1021.3;;;0.6;70.1
74431;BME280;62863;52.062;23.764;2023-11-21T08:46:47;1021.5;;;0.7;69.6
74431;BME280;62863;52.062;23.764;2023-11-21T08:51:21;1021.5;;;0.7;69.7
74431;BME280;62863;52.062;23.764;2023-11-21T08:56:31;1021.5;;;0.6;69.5
74431;BME280;62863;52.062;23.764;2023-11-21T09:01:13;1021.5;;;0.6;69.7
74431;BME280;62863;52.062;23.764;2023-11-21T09:21:49;1021.5;;;0.6;69.4
74431;BME280;62863;52.062;23.764;2023-11-21T09:26:39;1021.5;;;0.6;69.5
74431;BME280;62863;52.062;23.764;2023-11-21T09:31:47;1021.4;;;0.6;69.2
74431;BME280;62863;52.062;23.764;2023-11-21T09:36:47;1021.3;;;0.8;68.9
74431;BME280;62863;52.062;23.764;2023-11-21T09:41:15;1021.4;;;0.8;68.6
74431;BME280;62863;52.062;23.764;2023-11-21T09:46:35;1021.4;;;1;68.6
74431;BME280;62863;52.062;23.764;2023-11-21T09:51:37;1021.4;;;1;68.3
74431;BME280;62863;52.062;23.764;2023-11-21T09:56:13;1021.4;;;1.2;68.1
74431;BME280;62863;52.062;23.764;2023-11-21T10:01:39;1021.4;;;1.3;67.4
74431;BME280;62863;52.062;23.764;2023-11-21T10:06:27;1021.4;;;1.3;67.6
74431;BME280;62863;52.062;23.764;2023-11-21T10:11:51;1021.5;;;1.4;67.5
74431;BME280;62863;52.062;23.764;2023-11-21T10:16:41;1021.5;;;1.4;67.7
74431;BME280;62863;52.062;23.764;2023-11-21T10:21:51;1021.5;;;1.2;67.8
74431;BME280;62863;52.062;23.764;2023-11-21T10:26:51;1021.6;;;1.2;68.1
74431;BME280;62863;52.062;23.764;2023-11-21T10:31:23;1021.7;;;1.1;68.1
74431;BME280;62863;52.062;23.764;2023-11-21T10:36:51;1021.8;;;1.2;68.5
74431;BME280;62863;52.062;23.764;2023-11-21T10:41:13;1021.8;;;1.2;68.6
74431;BME280;62863;52.062;23.764;2023-11-21T10:46:17;1021.8;;;1.1;68.6
74431;BME280;62863;52.062;23.764;2023-11-21T10:51:39;1021.8;;;1.1;68.8
74431;BME280;62863;52.062;23.764;2023-11-21T10:56:27;1021.8;;;1.1;68.6
74431;BME280;62863;52.062;23.764;2023-11-21T11:01:49;1021.8;;;1.1;69
74431;BME280;62863;52.062;23.764;2023-11-21T11:06:50;1021.8;;;1.1;68.9
74431;BME280;62863;52.062;23.764;2023-11-21T11:11:49;1021.8;;;0.9;69
74431;BME280;62863;52.062;23.764;2023-11-21T11:16:52;1021.9;;;0.8;69.6
74431;BME280;62863;52.062;23.764;2023-11-21T11:21:25;1021.8;;;0.8;69.5
74431;BME280;62863;52.062;23.764;2023-11-21T11:26:37;1021.8;;;0.8;69.6
74431;BME280;62863;52.062;23.764;2023-11-21T11:31:30;1021.8;;;0.8;69.1
74431;BME280;62863;52.062;23.764;2023-11-21T11:36:13;1021.8;;;0.9;68.9
74431;BME280;62863;52.062;23.764;2023-11-21T11:41:35;1021.8;;;0.8;69.1
74431;BME280;62863;52.062;23.764;2023-11-21T11:46:39;1021.8;;;0.8;69.3
74431;BME280;62863;52.062;23.764;2023-11-21T11:51:12;1021.8;;;0.7;69.4
74431;BME280;62863;52.062;23.764;2023-11-21T11:56:39;1021.8;;;0.6;69.8
74431;BME280;62863;52.062;23.764;2023-11-21T12:01:24;1021.8;;;0.6;70.1
74431;BME280;62863;52.062;23.764;2023-11-21T12:06:50;1021.9;;;0.5;70.1
74431;BME280;62863;52.062;23.764;2023-11-21T12:11:37;1021.9;;;0.4;70.4
74431;BME280;62863;52.062;23.764;2023-11-21T12:16:23;1021.9;;;0.3;70.4
74431;BME280;62863;52.062;23.764;2023-11-21T12:21:41;1022;;;0.3;70.4
74431;BME280;62863;52.062;23.764;2023-11-21T12:26:29;1022;;;0.2;70.5
74431;BME280;62863;52.062;23.764;2023-11-21T12:31:49;1022.1;;;0.1;70.9
74431;BME280;62863;52.062;23.764;2023-11-21T12:36:15;1022.1;;;0;70.9
74431;BME280;62863;52.062;23.764;2023-11-21T12:41:25;1022.2;;;-0.1;71.2
74431;BME280;62863;52.062;23.764;2023-11-21T12:46:40;1022.3;;;-0.2;71.5
74431;BME280;62863;52.062;23.764;2023-11-21T12:51:39;1022.4;;;-0.3;71.5
74431;BME280;62863;52.062;23.764;2023-11-21T12:56:49;1022.4;;;-0.4;71.6
74431;BME280;62863;52.062;23.764;2023-11-21T13:01:37;1022.4;;;-0.4;71.6
74431;BME280;62863;52.062;23.764;2023-11-21T13:06:23;1022.4;;;-0.4;71.6
74431;BME280;62863;52.062;23.764;2023-11-21T13:11:14;1022.5;;;-0.4;71.9
74431;BME280;62863;52.062;23.764;2023-11-21T13:16:27;1022.6;;;-0.4;71.8
74431;BME280;62863;52.062;23.764;2023-11-21T13:21:47;1022.6;;;-0.4;72.1
74431;BME280;62863;52.062;23.764;2023-11-21T13:26:15;1022.7;;;-0.5;72
74431;BME280;62863;52.062;23.764;2023-11-21T13:31:19;1022.8;;;-0.6;72
74431;BME280;62863;52.062;23.764;2023-11-21T13:36:33;1022.8;;;-0.8;72.3
74431;BME280;62863;52.062;23.764;2023-11-21T13:41:37;1022.9;;;-0.8;72.6
74431;BME280;62863;52.062;23.764;2023-11-21T13:46:51;1023;;;-0.9;72.7
74431;BME280;62863;52.062;23.764;2023-11-21T13:51:29;1023.1;;;-1;72.7
74431;BME280;62863;52.062;23.764;2023-11-21T13:56:13;1023.1;;;-1;73
74431;BME280;62863;52.062;23.764;2023-11-21T14:01:15;1023.2;;;-1;73.2
74431;BME280;62863;52.062;23.764;2023-11-21T14:06:48;1023.2;;;-1;73.3
74431;BME280;62863;52.062;23.764;2023-11-21T14:11:49;1023.3;;;-1;73.4
74431;BME280;62863;52.062;23.764;2023-11-21T14:16:29;1023.4;;;-1;73.5
74431;BME280;62863;52.062;23.764;2023-11-21T14:21:25;1023.4;;;-1.1;73.6
74431;BME280;62863;52.062;23.764;2023-11-21T14:26:41;1023.4;;;-1.1;73.7
74431;BME280;62863;52.062;23.764;2023-11-21T14:31:37;1023.5;;;-1.1;73.7
74431;BME280;62863;52.062;23.764;2023-11-21T14:36:49;1023.5;;;-1.1;73.9
74431;BME280;62863;52.062;23.764;2023-11-21T14:41:37;1023.6;;;-1.2;73.9
74431;BME280;62863;52.062;23.764;2023-11-21T14:46:21;1023.7;;;-1.2;74.1
74431;BME280;62863;52.062;23.764;2023-11-21T14:51:13;1023.6;;;-1.2;74.3
74431;BME280;62863;52.062;23.764;2023-11-21T14:56:49;1023.7;;;-1.2;74.2
74431;BME280;62863;52.062;23.764;2023-11-21T15:01:47;1023.7;;;-1.2;74.3
74431;BME280;62863;52.062;23.764;2023-11-21T15:06:39;1023.8;;;-1.3;74.3
74431;BME280;62863;52.062;23.764;2023-11-21T15:11:13;1023.8;;;-1.3;74.3
74431;BME280;62863;52.062;23.764;2023-11-21T15:16:41;1023.9;;;-1.3;74.1
74431;BME280;62863;52.062;23.764;2023-11-21T15:21:39;1023.9;;;-1.4;74
74431;BME280;62863;52.062;23.764;2023-11-21T15:26:49;1023.8;;;-1.4;74.1
74431;BME280;62863;52.062;23.764;2023-11-21T15:31:39;1024;;;-1.5;74.2
74431;BME280;62863;52.062;23.764;2023-11-21T15:36:21;1024.1;;;-1.5;74.3
74431;BME280;62863;52.062;23.764;2023-11-21T15:41:13;1024.2;;;-1.4;74.4
74431;BME280;62863;52.062;23.764;2023-11-21T15:46:29;1024.3;;;-1.4;74.5
74431;BME280;62863;52.062;23.764;2023-11-21T15:51:51;1024.4;;;-1.4;74.3
74431;BME280;62863;52.062;23.764;2023-11-21T15:56:41;1024.5;;;-1.4;74.4
74431;BME280;62863;52.062;23.764;2023-11-21T16:01:27;1024.6;;;-1.4;74.3
74431;BME280;62863;52.062;23.764;2023-11-21T16:06:43;1024.7;;;-1.4;74.3
74431;BME280;62863;52.062;23.764;2023-11-21T16:11:53;1024.8;;;-1.4;74.3
74431;BME280;62863;52.062;23.764;2023-11-21T16:16:53;1024.8;;;-1.4;74.4
74431;BME280;62863;52.062;23.764;2023-11-21T16:21:13;1024.9;;;-1.5;74.6
74431;BME280;62863;52.062;23.764;2023-11-21T16:26:15;1024.9;;;-1.4;74.8
74431;BME280;62863;52.062;23.764;2023-11-21T16:31:13;1025;;;-1.5;74.9
74431;BME280;62863;52.062;23.764;2023-11-21T16:36:13;1025;;;-1.5;75
74431;BME280;62863;52.062;23.764;2023-11-21T16:41:49;1025.1;;;-1.5;74.8
74431;BME280;62863;52.062;23.764;2023-11-21T16:46:31;1025.1;;;-1.5;74.7
74431;BME280;62863;52.062;23.764;2023-11-21T16:51:21;1025.2;;;-1.5;74.4
74431;BME280;62863;52.062;23.764;2023-11-21T16:56:25;1025.2;;;-1.6;74.5
74431;BME280;62863;52.062;23.764;2023-11-21T17:01:35;1025.3;;;-1.6;74.4
74431;BME280;62863;52.062;23.764;2023-11-21T17:06:49;1025.3;;;-1.6;74.3
74431;BME280;62863;52.062;23.764;2023-11-21T17:11:25;1025.4;;;-1.6;74.2
74431;BME280;62863;52.062;23.764;2023-11-21T17:16:13;1025.5;;;-1.6;74
74431;BME280;62863;52.062;23.764;2023-11-21T17:21:15;1025.5;;;-1.5;73.7
74431;BME280;62863;52.062;23.764;2023-11-21T17:26:27;1025.6;;;-1.5;73.3
74431;BME280;62863;52.062;23.764;2023-11-21T17:31:49;1025.7;;;-1.5;73.1
74431;BME280;62863;52.062;23.764;2023-11-21T17:36:39;1025.8;;;-1.5;72.6
74431;BME280;62863;52.062;23.764;2023-11-21T17:41:13;1025.8;;;-1.5;72.2
74431;BME280;62863;52.062;23.764;2023-11-21T17:46:29;1025.8;;;-1.4;72.2
74431;BME280;62863;52.062;23.764;2023-11-21T17:51:37;1025.8;;;-1.4;71.8
74431;BME280;62863;52.062;23.764;2023-11-21T17:56:51;1025.8;;;-1.4;71.4
74431;BME280;62863;52.062;23.764;2023-11-21T18:01:15;1025.7;;;-1.4;71.1
74431;BME280;62863;52.062;23.764;2023-11-21T18:06:15;1025.7;;;-1.4;70.7
74431;BME280;62863;52.062;23.764;2023-11-21T18:11:15;1025.7;;;-1.4;70.5
74431;BME280;62863;52.062;23.764;2023-11-21T18:16:27;1025.8;;;-1.4;70.5
74431;BME280;62863;52.062;23.764;2023-11-21T18:21:17;1025.9;;;-1.4;70.7
74431;BME280;62863;52.062;23.764;2023-11-21T18:26:39;1025.9;;;-1.4;70.6
74431;BME280;62863;52.062;23.764;2023-11-21T18:31:23;1026;;;-1.4;70.5
74431;BME280;62863;52.062;23.764;2023-11-21T18:36:42;1026.1;;;-1.4;70.5
74431;BME280;62863;52.062;23.764;2023-11-21T18:41:37;1026.1;;;-1.4;70.4
74431;BME280;62863;52.062;23.764;2023-11-21T18:46:47;1026.1;;;-1.4;70.4
74431;BME280;62863;52.062;23.764;2023-11-21T18:51:15;1026.1;;;-1.4;70.3
74431;BME280;62863;52.062;23.764;2023-11-21T18:56:18;1026.1;;;-1.5;70.3
74431;BME280;62863;52.062;23.764;2023-11-21T19:01:23;1026.1;;;-1.5;70.4
74431;BME280;62863;52.062;23.764;2023-11-21T19:06:25;1026.2;;;-1.5;70.5
74431;BME280;62863;52.062;23.764;2023-11-21T19:11:49;1026.2;;;-1.4;70.5
74431;BME280;62863;52.062;23.764;2023-11-21T19:16:27;1026.3;;;-1.4;70.2
74431;BME280;62863;52.062;23.764;2023-11-21T19:21:13;1026.4;;;-1.4;69.8
74431;BME280;62863;52.062;23.764;2023-11-21T19:26:39;1026.5;;;-1.4;69.5
74431;BME280;62863;52.062;23.764;2023-11-21T19:31:39;1026.6;;;-1.4;69.4
74431;BME280;62863;52.062;23.764;2023-11-21T19:36:45;1026.7;;;-1.4;69.3
74431;BME280;62863;52.062;23.764;2023-11-21T19:41:29;1026.8;;;-1.4;69
74431;BME280;62863;52.062;23.764;2023-11-21T19:46:15;1026.8;;;-1.4;68.8
74431;BME280;62863;52.062;23.764;2023-11-21T19:51:15;1026.9;;;-1.4;68.7
74431;BME280;62863;52.062;23.764;2023-11-21T19:56:13;1026.9;;;-1.4;68.5
74431;BME280;62863;52.062;23.764;2023-11-21T20:01:39;1026.9;;;-1.4;68.2
74431;BME280;62863;52.062;23.764;2023-11-21T20:06:27;1027;;;-1.5;68.2
74431;BME280;62863;52.062;23.764;2023-11-21T20:11:23;1026.9;;;-1.4;68.4
74431;BME280;62863;52.062;23.764;2023-11-21T20:16:24;1027;;;-1.4;68.3
74431;BME280;62863;52.062;23.764;2023-11-21T20:21:39;1027;;;-1.4;68
74431;BME280;62863;52.062;23.764;2023-11-21T20:26:45;1027.1;;;-1.4;67.9
74431;BME280;62863;52.062;23.764;2023-11-21T20:31:15;1027.2;;;-1.5;67.8
74431;BME280;62863;52.062;23.764;2023-11-21T20:36:23;1027.2;;;-1.4;67.8
74431;BME280;62863;52.062;23.764;2023-11-21T20:41:15;1027.2;;;-1.4;67.8
74431;BME280;62863;52.062;23.764;2023-11-21T20:46:31;1027.3;;;-1.4;67.7
74431;BME280;62863;52.062;23.764;2023-11-21T20:51:55;1027.4;;;-1.5;67.5
74431;BME280;62863;52.062;23.764;2023-11-21T20:56:55;1027.4;;;-1.5;67.2
74431;BME280;62863;52.062;23.764;2023-11-21T21:01:29;1027.5;;;-1.5;67.1
74431;BME280;62863;52.062;23.764;2023-11-21T21:06:29;1027.6;;;-1.5;67.1
74431;BME280;62863;52.062;23.764;2023-11-21T21:11:41;1027.7;;;-1.5;67.1
74431;BME280;62863;52.062;23.764;2023-11-21T21:16:51;1027.8;;;-1.5;67.3
74431;BME280;62863;52.062;23.764;2023-11-21T21:21:15;1027.8;;;-1.5;67.2
74431;BME280;62863;52.062;23.764;2023-11-21T21:26:27;1027.9;;;-1.5;67.3
74431;BME280;62863;52.062;23.764;2023-11-21T21:31:17;1027.9;;;-1.5;67.3
74431;BME280;62863;52.062;23.764;2023-11-21T21:36:29;1028;;;-1.5;67.3
74431;BME280;62863;52.062;23.764;2023-11-21T21:41:53;1028;;;-1.5;67.2
74431;BME280;62863;52.062;23.764;2023-11-21T21:46:45;1028.1;;;-1.5;67.2
74431;BME280;62863;52.062;23.764;2023-11-21T21:51:15;1028.1;;;-1.5;67.2
74431;BME280;62863;52.062;23.764;2023-11-21T21:56:45;1028.2;;;-1.5;67.2
74431;BME280;62863;52.062;23.764;2023-11-21T22:01:55;1028.2;;;-1.5;67.4
74431;BME280;62863;52.062;23.764;2023-11-21T22:06:17;1028.2;;;-1.6;67.2
74431;BME280;62863;52.062;23.764;2023-11-21T22:11:23;1028.3;;;-1.6;67.1
74431;BME280;62863;52.062;23.764;2023-11-21T22:16:15;1028.4;;;-1.6;67.3
74431;BME280;62863;52.062;23.764;2023-11-21T22:21:27;1028.4;;;-1.6;67.2
74431;BME280;62863;52.062;23.764;2023-11-21T22:26:41;1028.4;;;-1.6;67.3
74431;BME280;62863;52.062;23.764;2023-11-21T22:31:52;1028.5;;;-1.6;67.2
74431;BME280;62863;52.062;23.764;2023-11-21T22:36:41;1028.5;;;-1.6;67
74431;BME280;62863;52.062;23.764;2023-11-21T22:41:22;1028.6;;;-1.6;66.9
74431;BME280;62863;52.062;23.764;2023-11-21T22:46:41;1028.7;;;-1.6;66.9
74431;BME280;62863;52.062;23.764;2023-11-21T22:51:41;1028.8;;;-1.6;66.7
74431;BME280;62863;52.062;23.764;2023-11-21T22:56:53;1028.8;;;-1.6;66.7
74431;BME280;62863;52.062;23.764;2023-11-21T23:01:25;1028.8;;;-1.6;66.7
74431;BME280;62863;52.062;23.764;2023-11-21T23:06:17;1028.9;;;-1.6;66.7
74431;BME280;62863;52.062;23.764;2023-11-21T23:11:16;1028.9;;;-1.6;66.7
74431;BME280;62863;52.062;23.764;2023-11-21T23:16:31;1029;;;-1.6;66.8
74431;BME280;62863;52.062;23.764;2023-11-21T23:21:53;1029.1;;;-1.6;66.9
74431;BME280;62863;52.062;23.764;2023-11-21T23:26:41;1029.1;;;-1.6;66.9
74431;BME280;62863;52.062;23.764;2023-11-21T23:31:17;1029.2;;;-1.6;66.8
74431;BME280;62863;52.062;23.764;2023-11-21T23:36:43;1029.2;;;-1.6;66.9
74431;BME280;62863;52.062;23.764;2023-11-21T23:41:41;1029.3;;;-1.6;67
74431;BME280;62863;52.062;23.764;2023-11-21T23:46:53;1029.3;;;-1.6;66.9
74431;BME280;62863;52.062;23.764;2023-11-21T23:51:17;1029.3;;;-1.6;66.9
74431;BME280;62863;52.062;23.764;2023-11-21T23:56:17;1029.3;;;-1.6;66.9
